sensor_id;sensor_type;location;lat;lon;timestamp;P1;durP1;ratioP1;P2;durP2;ratioP2
10045;SDS011;5063;50.878;4.742;2022-08-19T00:01:41;17.63;;;15.70;;
10045;SDS011;5063;50.878;4.742;2022-08-19T00:04:10;15.77;;;14.27;;
10045;SDS011;5063;50.878;4.742;2022-08-19T00:06:38;14.40;;;12.93;;
10045;SDS011;5063;50.878;4.742;2022-08-19T00:09:07;15.57;;;13.97;;
10045;SDS011;5063;50.878;4.742;2022-08-19T00:11:35;15.17;;;13.27;;
10045;SDS011;5063;50.878;4.742;2022-08-19T00:14:02;15.93;;;14.23;;
10045;SDS011;5063;50.878;4.742;2022-08-19T00:16:29;15.33;;;13.53;;
10045;SDS011;5063;50.878;4.742;2022-08-19T00:18:54;17.97;;;16.20;;
10045;SDS011;5063;50.878;4.742;2022-08-19T00:21:21;17.03;;;15.43;;
10045;SDS011;5063;50.878;4.742;2022-08-19T00:23:47;17.13;;;15.50;;
10045;SDS011;5063;50.878;4.742;2022-08-19T00:26:14;16.17;;;14.57;;
10045;SDS011;5063;50.878;4.742;2022-08-19T00:28:40;15.97;;;14.37;;
10045;SDS011;5063;50.878;4.742;2022-08-19T00:31:06;15.63;;;14.13;;
10045;SDS011;5063;50.878;4.742;2022-08-19T00:33:33;15.43;;;13.93;;
10045;SDS011;5063;50.878;4.742;2022-08-19T00:36:00;18.27;;;15.73;;
10045;SDS011;5063;50.878;4.742;2022-08-19T00:38:29;18.20;;;16.40;;
10045;SDS011;5063;50.878;4.742;2022-08-19T00:40:55;16.37;;;14.67;;
10045;SDS011;5063;50.878;4.742;2022-08-19T00:43:22;17.60;;;15.77;;
10045;SDS011;5063;50.878;4.742;2022-08-19T00:45:50;17.80;;;14.80;;
10045;SDS011;5063;50.878;4.742;2022-08-19T00:48:17;17.93;;;16.03;;
10045;SDS011;5063;50.878;4.742;2022-08-19T00:50:44;17.87;;;15.50;;
10045;SDS011;5063;50.878;4.742;2022-08-19T00:53:10;19.60;;;17.27;;
10045;SDS011;5063;50.878;4.742;2022-08-19T00:55:40;20.13;;;17.13;;
10045;SDS011;5063;50.878;4.742;2022-08-19T00:58:10;18.50;;;16.70;;
10045;SDS011;5063;50.878;4.742;2022-08-19T01:00:38;25.43;;;21.37;;
10045;SDS011;5063;50.878;4.742;2022-08-19T01:03:05;24.10;;;20.87;;
10045;SDS011;5063;50.878;4.742;2022-08-19T01:05:42;28.77;;;23.60;;
10045;SDS011;5063;50.878;4.742;2022-08-19T01:08:09;28.73;;;22.87;;
10045;SDS011;5063;50.878;4.742;2022-08-19T01:10:37;31.10;;;25.47;;
10045;SDS011;5063;50.878;4.742;2022-08-19T01:13:08;29.37;;;25.03;;
10045;SDS011;5063;50.878;4.742;2022-08-19T01:15:45;40.33;;;30.40;;
10045;SDS011;5063;50.878;4.742;2022-08-19T01:18:14;33.50;;;28.43;;
10045;SDS011;5063;50.878;4.742;2022-08-19T01:20:41;37.43;;;28.80;;
10045;SDS011;5063;50.878;4.742;2022-08-19T01:23:08;37.50;;;29.63;;
10045;SDS011;5063;50.878;4.742;2022-08-19T01:25:51;36.37;;;28.47;;
10045;SDS011;5063;50.878;4.742;2022-08-19T01:28:21;37.43;;;28.17;;
10045;SDS011;5063;50.878;4.742;2022-08-19T01:30:50;43.53;;;29.77;;
10045;SDS011;5063;50.878;4.742;2022-08-19T01:33:17;43.03;;;31.20;;
10045;SDS011;5063;50.878;4.742;2022-08-19T01:35:44;41.23;;;31.10;;
10045;SDS011;5063;50.878;4.742;2022-08-19T01:38:19;39.10;;;30.47;;
10045;SDS011;5063;50.878;4.742;2022-08-19T01:40:47;42.73;;;31.47;;
10045;SDS011;5063;50.878;4.742;2022-08-19T01:43:12;42.30;;;29.43;;
10045;SDS011;5063;50.878;4.742;2022-08-19T01:45:38;44.20;;;32.80;;
10045;SDS011;5063;50.878;4.742;2022-08-19T01:48:05;40.47;;;29.50;;
10045;SDS011;5063;50.878;4.742;2022-08-19T01:50:32;49.83;;;34.47;;
10045;SDS011;5063;50.878;4.742;2022-08-19T01:53:00;45.53;;;33.37;;
10045;SDS011;5063;50.878;4.742;2022-08-19T01:55:28;47.93;;;34.00;;
10045;SDS011;5063;50.878;4.742;2022-08-19T01:57:55;45.70;;;32.33;;
10045;SDS011;5063;50.878;4.742;2022-08-19T02:00:24;43.13;;;32.07;;
10045;SDS011;5063;50.878;4.742;2022-08-19T02:02:53;47.27;;;34.97;;
10045;SDS011;5063;50.878;4.742;2022-08-19T02:05:19;44.57;;;33.03;;
10045;SDS011;5063;50.878;4.742;2022-08-19T02:07:46;39.50;;;29.10;;
10045;SDS011;5063;50.878;4.742;2022-08-19T02:10:14;38.00;;;28.10;;
10045;SDS011;5063;50.878;4.742;2022-08-19T02:12:44;36.60;;;26.60;;
10045;SDS011;5063;50.878;4.742;2022-08-19T02:15:10;35.53;;;29.03;;
10045;SDS011;5063;50.878;4.742;2022-08-19T02:17:37;38.00;;;29.27;;
10045;SDS011;5063;50.878;4.742;2022-08-19T02:20:04;44.20;;;29.43;;
10045;SDS011;5063;50.878;4.742;2022-08-19T02:22:32;41.87;;;30.50;;
10045;SDS011;5063;50.878;4.742;2022-08-19T02:24:58;40.17;;;31.10;;
10045;SDS011;5063;50.878;4.742;2022-08-19T02:27:24;39.30;;;31.47;;
10045;SDS011;5063;50.878;4.742;2022-08-19T02:29:51;43.90;;;31.70;;
10045;SDS011;5063;50.878;4.742;2022-08-19T02:32:17;43.63;;;33.17;;
10045;SDS011;5063;50.878;4.742;2022-08-19T02:34:47;50.87;;;35.27;;
10045;SDS011;5063;50.878;4.742;2022-08-19T02:37:13;50.00;;;34.63;;
10045;SDS011;5063;50.878;4.742;2022-08-19T02:39:57;43.10;;;31.17;;
10045;SDS011;5063;50.878;4.742;2022-08-19T02:42:24;43.13;;;31.17;;
10045;SDS011;5063;50.878;4.742;2022-08-19T02:44:50;40.20;;;30.90;;
10045;SDS011;5063;50.878;4.742;2022-08-19T02:47:17;45.10;;;31.97;;
10045;SDS011;5063;50.878;4.742;2022-08-19T02:49:44;47.17;;;33.10;;
10045;SDS011;5063;50.878;4.742;2022-08-19T02:52:11;41.67;;;30.47;;
10045;SDS011;5063;50.878;4.742;2022-08-19T02:54:37;44.50;;;34.07;;
10045;SDS011;5063;50.878;4.742;2022-08-19T02:57:04;48.37;;;33.60;;
10045;SDS011;5063;50.878;4.742;2022-08-19T02:59:31;42.70;;;30.73;;
10045;SDS011;5063;50.878;4.742;2022-08-19T03:01:57;46.83;;;31.63;;
10045;SDS011;5063;50.878;4.742;2022-08-19T03:04:23;47.73;;;32.73;;
10045;SDS011;5063;50.878;4.742;2022-08-19T03:06:49;49.50;;;34.50;;
10045;SDS011;5063;50.878;4.742;2022-08-19T03:09:15;49.47;;;34.37;;
10045;SDS011;5063;50.878;4.742;2022-08-19T03:11:43;46.13;;;32.60;;
10045;SDS011;5063;50.878;4.742;2022-08-19T03:14:09;43.37;;;31.53;;
10045;SDS011;5063;50.878;4.742;2022-08-19T03:16:40;42.00;;;31.43;;
10045;SDS011;5063;50.878;4.742;2022-08-19T03:19:09;46.87;;;33.63;;
10045;SDS011;5063;50.878;4.742;2022-08-19T03:21:34;45.23;;;32.23;;
10045;SDS011;5063;50.878;4.742;2022-08-19T03:24:02;48.40;;;32.67;;
10045;SDS011;5063;50.878;4.742;2022-08-19T03:26:31;39.37;;;30.53;;
10045;SDS011;5063;50.878;4.742;2022-08-19T03:28:57;46.27;;;33.40;;
10045;SDS011;5063;50.878;4.742;2022-08-19T03:31:26;44.83;;;33.23;;
10045;SDS011;5063;50.878;4.742;2022-08-19T03:33:52;44.80;;;31.30;;
10045;SDS011;5063;50.878;4.742;2022-08-19T03:36:19;42.87;;;31.33;;
10045;SDS011;5063;50.878;4.742;2022-08-19T03:38:51;49.53;;;33.47;;
10045;SDS011;5063;50.878;4.742;2022-08-19T03:41:24;40.97;;;30.57;;
10045;SDS011;5063;50.878;4.742;2022-08-19T03:43:51;41.10;;;30.77;;
10045;SDS011;5063;50.878;4.742;2022-08-19T03:46:19;47.27;;;33.20;;
10045;SDS011;5063;50.878;4.742;2022-08-19T03:48:47;43.07;;;31.33;;
10045;SDS011;5063;50.878;4.742;2022-08-19T03:51:24;48.30;;;32.37;;
10045;SDS011;5063;50.878;4.742;2022-08-19T03:53:59;46.30;;;30.97;;
10045;SDS011;5063;50.878;4.742;2022-08-19T03:56:28;39.33;;;30.37;;
10045;SDS011;5063;50.878;4.742;2022-08-19T03:58:55;43.27;;;31.87;;
10045;SDS011;5063;50.878;4.742;2022-08-19T04:01:22;44.13;;;31.90;;
10045;SDS011;5063;50.878;4.742;2022-08-19T04:03:49;43.50;;;32.33;;
10045;SDS011;5063;50.878;4.742;2022-08-19T04:06:19;46.07;;;31.23;;
10045;SDS011;5063;50.878;4.742;2022-08-19T04:08:48;42.57;;;30.90;;
10045;SDS011;5063;50.878;4.742;2022-08-19T04:11:16;42.40;;;29.80;;
10045;SDS011;5063;50.878;4.742;2022-08-19T04:13:49;40.30;;;29.20;;
10045;SDS011;5063;50.878;4.742;2022-08-19T04:16:16;39.50;;;28.83;;
10045;SDS011;5063;50.878;4.742;2022-08-19T04:18:43;41.70;;;30.10;;
10045;SDS011;5063;50.878;4.742;2022-08-19T04:21:14;39.33;;;27.83;;
10045;SDS011;5063;50.878;4.742;2022-08-19T04:23:42;37.93;;;27.57;;
10045;SDS011;5063;50.878;4.742;2022-08-19T04:26:11;34.77;;;26.83;;
10045;SDS011;5063;50.878;4.742;2022-08-19T04:28:42;38.87;;;26.77;;
10045;SDS011;5063;50.878;4.742;2022-08-19T04:31:12;38.33;;;28.00;;
10045;SDS011;5063;50.878;4.742;2022-08-19T04:33:44;39.37;;;27.63;;
10045;SDS011;5063;50.878;4.742;2022-08-19T04:36:20;45.30;;;27.47;;
10045;SDS011;5063;50.878;4.742;2022-08-19T04:38:48;33.00;;;24.90;;
10045;SDS011;5063;50.878;4.742;2022-08-19T04:41:17;33.97;;;24.47;;
10045;SDS011;5063;50.878;4.742;2022-08-19T04:44:02;35.50;;;26.37;;
10045;SDS011;5063;50.878;4.742;2022-08-19T04:46:27;38.80;;;26.40;;
10045;SDS011;5063;50.878;4.742;2022-08-19T04:48:55;33.43;;;24.53;;
10045;SDS011;5063;50.878;4.742;2022-08-19T04:51:21;30.80;;;23.93;;
10045;SDS011;5063;50.878;4.742;2022-08-19T04:53:48;38.10;;;25.90;;
10045;SDS011;5063;50.878;4.742;2022-08-19T04:56:14;34.87;;;25.20;;
10045;SDS011;5063;50.878;4.742;2022-08-19T04:58:43;34.23;;;25.73;;
10045;SDS011;5063;50.878;4.742;2022-08-19T05:01:13;35.73;;;25.63;;
10045;SDS011;5063;50.878;4.742;2022-08-19T05:03:42;32.97;;;23.87;;
10045;SDS011;5063;50.878;4.742;2022-08-19T05:06:10;36.60;;;25.77;;
10045;SDS011;5063;50.878;4.742;2022-08-19T05:08:38;33.53;;;24.97;;
10045;SDS011;5063;50.878;4.742;2022-08-19T05:11:09;30.70;;;23.60;;
10045;SDS011;5063;50.878;4.742;2022-08-19T05:13:37;33.27;;;23.30;;
10045;SDS011;5063;50.878;4.742;2022-08-19T05:16:03;31.17;;;24.40;;
10045;SDS011;5063;50.878;4.742;2022-08-19T05:18:29;32.10;;;24.77;;
10045;SDS011;5063;50.878;4.742;2022-08-19T05:21:14;28.60;;;22.70;;
10045;SDS011;5063;50.878;4.742;2022-08-19T05:24:00;35.40;;;23.27;;
10045;SDS011;5063;50.878;4.742;2022-08-19T05:26:27;34.77;;;22.87;;
10045;SDS011;5063;50.878;4.742;2022-08-19T05:28:53;32.70;;;23.20;;
10045;SDS011;5063;50.878;4.742;2022-08-19T05:31:19;32.67;;;22.37;;
10045;SDS011;5063;50.878;4.742;2022-08-19T05:33:45;34.87;;;21.33;;
10045;SDS011;5063;50.878;4.742;2022-08-19T05:36:11;34.37;;;22.20;;
10045;SDS011;5063;50.878;4.742;2022-08-19T05:38:38;31.00;;;22.17;;
10045;SDS011;5063;50.878;4.742;2022-08-19T05:41:11;30.97;;;21.80;;
10045;SDS011;5063;50.878;4.742;2022-08-19T05:43:41;27.00;;;20.37;;
10045;SDS011;5063;50.878;4.742;2022-08-19T05:46:07;30.00;;;22.50;;
10045;SDS011;5063;50.878;4.742;2022-08-19T05:48:34;32.57;;;22.00;;
10045;SDS011;5063;50.878;4.742;2022-08-19T05:51:07;29.40;;;20.77;;
10045;SDS011;5063;50.878;4.742;2022-08-19T05:53:33;31.57;;;20.70;;
10045;SDS011;5063;50.878;4.742;2022-08-19T05:56:06;25.57;;;20.70;;
10045;SDS011;5063;50.878;4.742;2022-08-19T05:58:33;28.17;;;20.43;;
10045;SDS011;5063;50.878;4.742;2022-08-19T06:01:00;28.17;;;20.83;;
10045;SDS011;5063;50.878;4.742;2022-08-19T06:03:30;30.43;;;23.10;;
10045;SDS011;5063;50.878;4.742;2022-08-19T06:05:58;27.13;;;20.10;;
10045;SDS011;5063;50.878;4.742;2022-08-19T06:08:25;28.40;;;20.10;;
10045;SDS011;5063;50.878;4.742;2022-08-19T06:10:52;28.20;;;19.03;;
10045;SDS011;5063;50.878;4.742;2022-08-19T06:13:18;27.43;;;19.43;;
10045;SDS011;5063;50.878;4.742;2022-08-19T06:15:45;26.17;;;20.27;;
10045;SDS011;5063;50.878;4.742;2022-08-19T06:18:11;24.63;;;18.67;;
10045;SDS011;5063;50.878;4.742;2022-08-19T06:20:39;26.70;;;19.53;;
10045;SDS011;5063;50.878;4.742;2022-08-19T06:23:06;26.20;;;19.10;;
10045;SDS011;5063;50.878;4.742;2022-08-19T06:25:33;26.67;;;19.97;;
10045;SDS011;5063;50.878;4.742;2022-08-19T06:27:59;26.07;;;18.60;;
10045;SDS011;5063;50.878;4.742;2022-08-19T06:30:25;24.77;;;18.60;;
10045;SDS011;5063;50.878;4.742;2022-08-19T06:32:51;25.00;;;19.17;;
10045;SDS011;5063;50.878;4.742;2022-08-19T06:35:16;24.60;;;17.92;;
10045;SDS011;5063;50.878;4.742;2022-08-19T06:37:42;21.00;;;16.35;;
10045;SDS011;5063;50.878;4.742;2022-08-19T06:40:09;21.25;;;16.25;;
10045;SDS011;5063;50.878;4.742;2022-08-19T06:42:36;22.58;;;16.27;;
10045;SDS011;5063;50.878;4.742;2022-08-19T06:45:05;20.17;;;15.15;;
10045;SDS011;5063;50.878;4.742;2022-08-19T06:47:33;17.63;;;14.93;;
10045;SDS011;5063;50.878;4.742;2022-08-19T06:49:59;17.35;;;14.02;;
10045;SDS011;5063;50.878;4.742;2022-08-19T06:52:28;16.30;;;13.82;;
10045;SDS011;5063;50.878;4.742;2022-08-19T06:54:59;16.27;;;13.32;;
10045;SDS011;5063;50.878;4.742;2022-08-19T06:57:26;16.73;;;12.70;;
10045;SDS011;5063;50.878;4.742;2022-08-19T06:59:52;16.02;;;12.63;;
10045;SDS011;5063;50.878;4.742;2022-08-19T07:02:18;14.52;;;11.50;;
10045;SDS011;5063;50.878;4.742;2022-08-19T07:04:45;15.20;;;11.05;;
10045;SDS011;5063;50.878;4.742;2022-08-19T07:07:12;12.07;;;10.48;;
10045;SDS011;5063;50.878;4.742;2022-08-19T07:09:40;13.23;;;11.02;;
10045;SDS011;5063;50.878;4.742;2022-08-19T07:12:09;11.70;;;10.20;;
10045;SDS011;5063;50.878;4.742;2022-08-19T07:14:38;10.90;;;9.18;;
10045;SDS011;5063;50.878;4.742;2022-08-19T07:17:06;13.32;;;9.05;;
10045;SDS011;5063;50.878;4.742;2022-08-19T07:19:34;13.63;;;8.93;;
10045;SDS011;5063;50.878;4.742;2022-08-19T07:22:02;11.75;;;8.98;;
10045;SDS011;5063;50.878;4.742;2022-08-19T07:24:30;10.68;;;7.90;;
10045;SDS011;5063;50.878;4.742;2022-08-19T07:26:58;11.77;;;8.75;;
10045;SDS011;5063;50.878;4.742;2022-08-19T07:29:26;9.75;;;8.13;;
10045;SDS011;5063;50.878;4.742;2022-08-19T07:31:52;10.45;;;7.13;;
10045;SDS011;5063;50.878;4.742;2022-08-19T07:34:21;7.63;;;6.72;;
10045;SDS011;5063;50.878;4.742;2022-08-19T07:36:48;9.48;;;6.93;;
10045;SDS011;5063;50.878;4.742;2022-08-19T07:39:29;9.07;;;6.45;;
10045;SDS011;5063;50.878;4.742;2022-08-19T07:41:57;9.93;;;6.78;;
10045;SDS011;5063;50.878;4.742;2022-08-19T07:44:24;9.30;;;5.43;;
10045;SDS011;5063;50.878;4.742;2022-08-19T07:46:52;8.65;;;6.28;;
10045;SDS011;5063;50.878;4.742;2022-08-19T07:49:21;7.05;;;5.28;;
10045;SDS011;5063;50.878;4.742;2022-08-19T07:51:49;8.23;;;5.07;;
10045;SDS011;5063;50.878;4.742;2022-08-19T07:54:18;6.65;;;5.22;;
10045;SDS011;5063;50.878;4.742;2022-08-19T07:56:44;7.57;;;4.60;;
10045;SDS011;5063;50.878;4.742;2022-08-19T07:59:10;6.07;;;4.53;;
10045;SDS011;5063;50.878;4.742;2022-08-19T08:01:37;7.38;;;4.30;;
10045;SDS011;5063;50.878;4.742;2022-08-19T08:04:05;7.40;;;4.38;;
10045;SDS011;5063;50.878;4.742;2022-08-19T08:06:51;4.72;;;3.58;;
10045;SDS011;5063;50.878;4.742;2022-08-19T08:09:37;6.03;;;3.90;;
10045;SDS011;5063;50.878;4.742;2022-08-19T08:12:07;4.50;;;3.35;;
10045;SDS011;5063;50.878;4.742;2022-08-19T08:14:51;4.72;;;3.70;;
10045;SDS011;5063;50.878;4.742;2022-08-19T08:17:19;5.95;;;3.30;;
10045;SDS011;5063;50.878;4.742;2022-08-19T08:19:48;3.38;;;2.85;;
10045;SDS011;5063;50.878;4.742;2022-08-19T08:22:16;5.82;;;3.30;;
10045;SDS011;5063;50.878;4.742;2022-08-19T08:25:16;4.22;;;3.20;;
10045;SDS011;5063;50.878;4.742;2022-08-19T08:27:45;4.53;;;3.22;;
10045;SDS011;5063;50.878;4.742;2022-08-19T08:30:19;3.92;;;3.13;;
10045;SDS011;5063;50.878;4.742;2022-08-19T08:32:46;5.38;;;4.03;;
10045;SDS011;5063;50.878;4.742;2022-08-19T08:35:13;4.30;;;3.45;;
10045;SDS011;5063;50.878;4.742;2022-08-19T08:37:41;4.68;;;3.30;;
10045;SDS011;5063;50.878;4.742;2022-08-19T08:45:30;5.30;;;3.20;;
10045;SDS011;5063;50.878;4.742;2022-08-19T08:48:04;5.07;;;3.92;;
10045;SDS011;5063;50.878;4.742;2022-08-19T08:50:46;4.60;;;3.15;;
10045;SDS011;5063;50.878;4.742;2022-08-19T08:53:16;5.82;;;3.50;;
10045;SDS011;5063;50.878;4.742;2022-08-19T08:55:43;4.30;;;3.45;;
10045;SDS011;5063;50.878;4.742;2022-08-19T08:58:15;5.20;;;3.47;;
10045;SDS011;5063;50.878;4.742;2022-08-19T09:00:49;4.65;;;3.15;;
10045;SDS011;5063;50.878;4.742;2022-08-19T09:06:02;5.53;;;3.78;;
10045;SDS011;5063;50.878;4.742;2022-08-19T09:08:36;5.28;;;3.53;;
10045;SDS011;5063;50.878;4.742;2022-08-19T09:11:06;5.03;;;4.28;;
10045;SDS011;5063;50.878;4.742;2022-08-19T09:16:20;3.47;;;2.95;;
10045;SDS011;5063;50.878;4.742;2022-08-19T09:18:53;6.65;;;3.72;;
10045;SDS011;5063;50.878;4.742;2022-08-19T09:21:24;4.03;;;3.47;;
10045;SDS011;5063;50.878;4.742;2022-08-19T09:23:51;4.82;;;3.50;;
10045;SDS011;5063;50.878;4.742;2022-08-19T09:26:19;4.22;;;3.28;;
10045;SDS011;5063;50.878;4.742;2022-08-19T09:28:46;3.70;;;3.40;;
10045;SDS011;5063;50.878;4.742;2022-08-19T09:31:18;4.80;;;3.85;;
10045;SDS011;5063;50.878;4.742;2022-08-19T09:33:49;3.97;;;3.10;;
10045;SDS011;5063;50.878;4.742;2022-08-19T09:36:16;5.47;;;3.47;;
10045;SDS011;5063;50.878;4.742;2022-08-19T09:38:43;4.80;;;3.42;;
10045;SDS011;5063;50.878;4.742;2022-08-19T09:41:14;8.48;;;3.15;;
10045;SDS011;5063;50.878;4.742;2022-08-19T09:43:44;3.47;;;3.08;;
10045;SDS011;5063;50.878;4.742;2022-08-19T09:46:11;6.38;;;3.20;;
10045;SDS011;5063;50.878;4.742;2022-08-19T09:48:38;5.43;;;3.20;;
10045;SDS011;5063;50.878;4.742;2022-08-19T09:51:06;3.47;;;2.88;;
10045;SDS011;5063;50.878;4.742;2022-08-19T09:53:34;4.60;;;3.28;;
10045;SDS011;5063;50.878;4.742;2022-08-19T09:56:01;3.20;;;2.90;;
10045;SDS011;5063;50.878;4.742;2022-08-19T09:58:28;4.75;;;2.85;;
10045;SDS011;5063;50.878;4.742;2022-08-19T10:00:55;2.65;;;2.33;;
10045;SDS011;5063;50.878;4.742;2022-08-19T10:03:26;2.90;;;2.42;;
10045;SDS011;5063;50.878;4.742;2022-08-19T10:05:53;3.13;;;2.38;;
10045;SDS011;5063;50.878;4.742;2022-08-19T10:08:21;4.68;;;2.92;;
10045;SDS011;5063;50.878;4.742;2022-08-19T10:10:50;6.00;;;3.17;;
10045;SDS011;5063;50.878;4.742;2022-08-19T10:13:18;5.65;;;3.58;;
10045;SDS011;5063;50.878;4.742;2022-08-19T10:15:48;4.78;;;3.60;;
10045;SDS011;5063;50.878;4.742;2022-08-19T10:18:18;5.50;;;3.33;;
10045;SDS011;5063;50.878;4.742;2022-08-19T10:20:48;3.22;;;2.92;;
10045;SDS011;5063;50.878;4.742;2022-08-19T10:23:16;5.45;;;3.97;;
10045;SDS011;5063;50.878;4.742;2022-08-19T10:25:42;3.67;;;3.17;;
10045;SDS011;5063;50.878;4.742;2022-08-19T10:28:08;3.42;;;3.13;;
10045;SDS011;5063;50.878;4.742;2022-08-19T10:30:36;3.40;;;3.00;;
10045;SDS011;5063;50.878;4.742;2022-08-19T10:33:04;4.90;;;3.63;;
10045;SDS011;5063;50.878;4.742;2022-08-19T10:35:30;6.00;;;3.63;;
10045;SDS011;5063;50.878;4.742;2022-08-19T10:37:56;4.35;;;3.33;;
10045;SDS011;5063;50.878;4.742;2022-08-19T10:40:26;4.90;;;3.05;;
10045;SDS011;5063;50.878;4.742;2022-08-19T10:42:53;6.18;;;3.08;;
10045;SDS011;5063;50.878;4.742;2022-08-19T10:45:20;3.90;;;2.92;;
10045;SDS011;5063;50.878;4.742;2022-08-19T10:47:48;4.95;;;3.47;;
10045;SDS011;5063;50.878;4.742;2022-08-19T10:50:14;3.70;;;2.78;;
10045;SDS011;5063;50.878;4.742;2022-08-19T10:53:02;4.57;;;3.35;;
10045;SDS011;5063;50.878;4.742;2022-08-19T10:55:30;3.70;;;3.30;;
10045;SDS011;5063;50.878;4.742;2022-08-19T10:58:15;5.13;;;3.50;;
10045;SDS011;5063;50.878;4.742;2022-08-19T11:00:43;6.00;;;3.20;;
10045;SDS011;5063;50.878;4.742;2022-08-19T11:03:15;5.15;;;3.40;;
10045;SDS011;5063;50.878;4.742;2022-08-19T11:05:41;5.28;;;3.60;;
10045;SDS011;5063;50.878;4.742;2022-08-19T11:08:07;6.40;;;3.25;;
10045;SDS011;5063;50.878;4.742;2022-08-19T11:10:36;5.80;;;3.45;;
10045;SDS011;5063;50.878;4.742;2022-08-19T11:13:06;4.50;;;3.58;;
10045;SDS011;5063;50.878;4.742;2022-08-19T11:15:32;3.20;;;2.50;;
10045;SDS011;5063;50.878;4.742;2022-08-19T11:17:58;2.95;;;2.70;;
10045;SDS011;5063;50.878;4.742;2022-08-19T11:20:25;2.70;;;2.50;;
10045;SDS011;5063;50.878;4.742;2022-08-19T11:22:51;2.90;;;2.50;;
10045;SDS011;5063;50.878;4.742;2022-08-19T11:25:18;3.42;;;2.83;;
10045;SDS011;5063;50.878;4.742;2022-08-19T11:27:44;4.38;;;2.83;;
10045;SDS011;5063;50.878;4.742;2022-08-19T11:30:12;4.47;;;3.00;;
10045;SDS011;5063;50.878;4.742;2022-08-19T11:32:38;3.20;;;2.42;;
10045;SDS011;5063;50.878;4.742;2022-08-19T11:35:05;6.25;;;3.15;;
10045;SDS011;5063;50.878;4.742;2022-08-19T11:37:31;4.85;;;2.90;;
10045;SDS011;5063;50.878;4.742;2022-08-19T11:40:03;2.35;;;2.15;;
10045;SDS011;5063;50.878;4.742;2022-08-19T11:42:31;3.42;;;2.90;;
10045;SDS011;5063;50.878;4.742;2022-08-19T11:45:15;4.93;;;3.17;;
10045;SDS011;5063;50.878;4.742;2022-08-19T11:47:40;5.13;;;3.15;;
10045;SDS011;5063;50.878;4.742;2022-08-19T11:50:06;5.55;;;3.33;;
10045;SDS011;5063;50.878;4.742;2022-08-19T11:52:32;3.10;;;2.60;;
10045;SDS011;5063;50.878;4.742;2022-08-19T11:54:58;4.25;;;3.03;;
10045;SDS011;5063;50.878;4.742;2022-08-19T11:57:23;3.63;;;2.95;;
10045;SDS011;5063;50.878;4.742;2022-08-19T11:59:50;4.43;;;3.25;;
10045;SDS011;5063;50.878;4.742;2022-08-19T12:02:16;4.47;;;3.75;;
10045;SDS011;5063;50.878;4.742;2022-08-19T12:04:42;6.20;;;3.47;;
10045;SDS011;5063;50.878;4.742;2022-08-19T12:07:08;4.25;;;3.72;;
10045;SDS011;5063;50.878;4.742;2022-08-19T12:09:34;3.47;;;3.17;;
10045;SDS011;5063;50.878;4.742;2022-08-19T12:12:00;4.13;;;3.60;;
10045;SDS011;5063;50.878;4.742;2022-08-19T12:14:27;6.68;;;4.00;;
10045;SDS011;5063;50.878;4.742;2022-08-19T12:16:55;4.53;;;4.13;;
10045;SDS011;5063;50.878;4.742;2022-08-19T12:19:21;4.15;;;3.78;;
10045;SDS011;5063;50.878;4.742;2022-08-19T12:21:47;6.75;;;4.32;;
10045;SDS011;5063;50.878;4.742;2022-08-19T12:24:13;5.30;;;4.78;;
10045;SDS011;5063;50.878;4.742;2022-08-19T12:26:39;6.18;;;5.57;;
10045;SDS011;5063;50.878;4.742;2022-08-19T12:29:04;6.07;;;5.53;;
10045;SDS011;5063;50.878;4.742;2022-08-19T12:31:30;6.03;;;5.43;;
10045;SDS011;5063;50.878;4.742;2022-08-19T12:33:57;7.13;;;4.65;;
10045;SDS011;5063;50.878;4.742;2022-08-19T12:36:23;5.68;;;5.00;;
10045;SDS011;5063;50.878;4.742;2022-08-19T12:38:50;5.20;;;4.72;;
10045;SDS011;5063;50.878;4.742;2022-08-19T12:41:16;5.65;;;4.80;;
10045;SDS011;5063;50.878;4.742;2022-08-19T12:43:43;5.90;;;4.68;;
10045;SDS011;5063;50.878;4.742;2022-08-19T12:46:10;7.10;;;5.07;;
10045;SDS011;5063;50.878;4.742;2022-08-19T12:48:36;5.93;;;4.68;;
10045;SDS011;5063;50.878;4.742;2022-08-19T12:51:07;5.85;;;5.07;;
10045;SDS011;5063;50.878;4.742;2022-08-19T12:53:35;6.85;;;5.88;;
10045;SDS011;5063;50.878;4.742;2022-08-19T12:56:01;6.10;;;5.45;;
10045;SDS011;5063;50.878;4.742;2022-08-19T12:58:27;5.68;;;5.18;;
10045;SDS011;5063;50.878;4.742;2022-08-19T13:00:54;8.85;;;5.20;;
10045;SDS011;5063;50.878;4.742;2022-08-19T13:03:20;4.97;;;4.47;;
10045;SDS011;5063;50.878;4.742;2022-08-19T13:05:52;4.93;;;4.43;;
10045;SDS011;5063;50.878;4.742;2022-08-19T13:08:18;5.38;;;4.82;;
10045;SDS011;5063;50.878;4.742;2022-08-19T13:10:43;5.78;;;4.45;;
10045;SDS011;5063;50.878;4.742;2022-08-19T13:13:09;5.10;;;4.53;;
10045;SDS011;5063;50.878;4.742;2022-08-19T13:15:36;4.43;;;4.03;;
10045;SDS011;5063;50.878;4.742;2022-08-19T13:18:05;4.22;;;3.58;;
10045;SDS011;5063;50.878;4.742;2022-08-19T13:20:32;3.92;;;3.63;;
10045;SDS011;5063;50.878;4.742;2022-08-19T13:22:57;4.82;;;4.05;;
10045;SDS011;5063;50.878;4.742;2022-08-19T13:25:23;4.47;;;3.70;;
10045;SDS011;5063;50.878;4.742;2022-08-19T13:27:50;3.85;;;3.55;;
10045;SDS011;5063;50.878;4.742;2022-08-19T13:30:17;3.83;;;3.40;;
10045;SDS011;5063;50.878;4.742;2022-08-19T13:33:03;3.80;;;3.40;;
10045;SDS011;5063;50.878;4.742;2022-08-19T13:35:57;3.97;;;3.65;;
10045;SDS011;5063;50.878;4.742;2022-08-19T13:38:23;6.22;;;3.63;;
10045;SDS011;5063;50.878;4.742;2022-08-19T13:40:50;3.95;;;3.55;;
10045;SDS011;5063;50.878;4.742;2022-08-19T13:43:19;4.00;;;3.60;;
10045;SDS011;5063;50.878;4.742;2022-08-19T13:45:47;3.15;;;2.85;;
10045;SDS011;5063;50.878;4.742;2022-08-19T13:48:13;3.50;;;2.83;;
10045;SDS011;5063;50.878;4.742;2022-08-19T13:50:40;3.40;;;2.40;;
10045;SDS011;5063;50.878;4.742;2022-08-19T13:53:09;3.40;;;2.60;;
10045;SDS011;5063;50.878;4.742;2022-08-19T13:55:40;2.35;;;2.15;;
10045;SDS011;5063;50.878;4.742;2022-08-19T13:58:07;2.72;;;2.15;;
10045;SDS011;5063;50.878;4.742;2022-08-19T14:00:35;3.03;;;2.15;;
10045;SDS011;5063;50.878;4.742;2022-08-19T14:03:07;4.35;;;2.00;;
10045;SDS011;5063;50.878;4.742;2022-08-19T14:05:33;3.03;;;1.90;;
10045;SDS011;5063;50.878;4.742;2022-08-19T14:07:59;1.45;;;1.33;;
10045;SDS011;5063;50.878;4.742;2022-08-19T14:10:25;1.00;;;1.00;;
10045;SDS011;5063;50.878;4.742;2022-08-19T14:12:54;1.50;;;1.30;;
10045;SDS011;5063;50.878;4.742;2022-08-19T14:15:21;5.03;;;1.63;;
10045;SDS011;5063;50.878;4.742;2022-08-19T14:17:48;3.55;;;1.35;;
10045;SDS011;5063;50.878;4.742;2022-08-19T14:20:14;1.65;;;1.25;;
10045;SDS011;5063;50.878;4.742;2022-08-19T14:22:40;1.77;;;1.67;;
10045;SDS011;5063;50.878;4.742;2022-08-19T14:25:07;2.85;;;1.45;;
10045;SDS011;5063;50.878;4.742;2022-08-19T14:27:36;1.30;;;1.20;;
10045;SDS011;5063;50.878;4.742;2022-08-19T14:30:04;1.23;;;1.23;;
10045;SDS011;5063;50.878;4.742;2022-08-19T14:32:32;2.15;;;1.50;;
10045;SDS011;5063;50.878;4.742;2022-08-19T14:34:59;1.50;;;1.38;;
10045;SDS011;5063;50.878;4.742;2022-08-19T14:37:26;1.73;;;1.55;;
10045;SDS011;5063;50.878;4.742;2022-08-19T14:39:51;1.42;;;1.10;;
10045;SDS011;5063;50.878;4.742;2022-08-19T14:42:18;3.22;;;1.63;;
10045;SDS011;5063;50.878;4.742;2022-08-19T14:44:44;3.85;;;1.30;;
10045;SDS011;5063;50.878;4.742;2022-08-19T14:47:09;1.83;;;1.20;;
10045;SDS011;5063;50.878;4.742;2022-08-19T14:49:35;3.35;;;1.55;;
10045;SDS011;5063;50.878;4.742;2022-08-19T14:52:01;2.65;;;1.38;;
10045;SDS011;5063;50.878;4.742;2022-08-19T14:54:28;1.50;;;1.35;;
10045;SDS011;5063;50.878;4.742;2022-08-19T14:56:54;2.65;;;1.42;;
10045;SDS011;5063;50.878;4.742;2022-08-19T14:59:20;1.55;;;1.40;;
10045;SDS011;5063;50.878;4.742;2022-08-19T15:01:46;1.85;;;1.70;;
10045;SDS011;5063;50.878;4.742;2022-08-19T15:04:11;3.05;;;1.55;;
10045;SDS011;5063;50.878;4.742;2022-08-19T15:06:37;2.35;;;1.30;;